createdAt,value
2019-05-18T00:00:33.685Z,95796.08
2019-05-18T00:02:59.546Z,95791.88
2019-05-18T00:05:25.701Z,95796.69
2019-05-18T00:07:51.650Z,95796.41
2019-05-18T00:10:17.717Z,95789.42
2019-05-18T00:12:43.668Z,95801.09
2019-05-18T00:15:09.906Z,95798.16
2019-05-18T00:17:35.743Z,95786.92
2019-05-18T00:20:06.954Z,95786.92
2019-05-18T00:22:32.831Z,95793.02
2019-05-18T00:24:58.829Z,95792.39
2019-05-18T00:27:24.729Z,95785.61
2019-05-18T00:29:50.585Z,95785.16
2019-05-18T00:32:16.632Z,95787.64
2019-05-18T00:34:42.604Z,95789.71
2019-05-18T00:37:08.449Z,95789.71
2019-05-18T00:39:34.349Z,95786.94
2019-05-18T00:42:00.274Z,95788.45
2019-05-18T00:44:26.227Z,95785.28
2019-05-18T00:46:52.177Z,95787.27
2019-05-18T00:49:18.090Z,95791.97
2019-05-18T00:51:44.334Z,95788.79
2019-05-18T00:54:10.197Z,95784.75
2019-05-18T00:56:36.173Z,95784.75
2019-05-18T00:59:02.131Z,95779.80
2019-05-18T01:01:27.973Z,95781.72
2019-05-18T01:03:53.802Z,95771.89
2019-05-18T01:06:19.656Z,95774.67
2019-05-18T01:08:45.589Z,95771.90
2019-05-18T01:11:11.571Z,95774.55
2019-05-18T01:13:37.510Z,95771.15
2019-05-18T01:16:03.486Z,95774.92
2019-05-18T01:18:29.311Z,95781.67
2019-05-18T01:20:56.745Z,95777.22
2019-05-18T01:23:22.695Z,95777.22
2019-05-18T01:25:48.539Z,95774.20
2019-05-18T01:28:14.594Z,95773.69
2019-05-18T01:30:40.561Z,95777.65
2019-05-18T01:33:06.491Z,95762.53
2019-05-18T01:35:32.316Z,95770.63
2019-05-18T01:37:58.266Z,95769.07
2019-05-18T01:40:24.210Z,95766.17
2019-05-18T01:42:50.169Z,95763.94
2019-05-18T01:45:17.564Z,95769.65
2019-05-18T01:47:43.621Z,95754.33
2019-05-18T01:50:09.687Z,95754.33
2019-05-18T01:52:35.504Z,95762.02
2019-05-18T01:55:02.660Z,95761.75
2019-05-18T01:57:28.501Z,95760.98
2019-05-18T01:59:54.453Z,95760.80
2019-05-18T02:02:20.406Z,95763.23
2019-05-18T02:04:46.362Z,95760.80
2019-05-18T02:07:12.300Z,95759.48
2019-05-18T02:09:38.262Z,95751.60
2019-05-18T02:12:04.130Z,95758.04
2019-05-18T02:14:30.066Z,95752.92
2019-05-18T02:16:55.983Z,95753.67
2019-05-18T02:19:24.749Z,95753.81
2019-05-18T02:21:49.687Z,95750.94
2019-05-18T02:24:15.656Z,95750.94
2019-05-18T02:26:41.702Z,95750.10
2019-05-18T02:29:07.753Z,95752.02
2019-05-18T02:31:33.796Z,95757.05
2019-05-18T02:33:59.763Z,95756.89
2019-05-18T02:36:25.727Z,95756.89
2019-05-18T02:38:51.592Z,95750.33
2019-05-18T02:41:17.424Z,95750.55
2019-05-18T02:43:43.388Z,95743.69
2019-05-18T02:46:09.214Z,95750.42
2019-05-18T02:48:48.892Z,95745.30
2019-05-18T02:51:02.936Z,95746.88
2019-05-18T02:53:28.894Z,95746.88
2019-05-18T02:55:54.917Z,95704.38
2019-05-18T02:58:20.917Z,95749.66
2019-05-18T03:00:46.821Z,95741.63
2019-05-18T03:03:12.765Z,95739.31
2019-05-18T03:05:38.630Z,95745.98
2019-05-18T03:08:04.580Z,95736.70
2019-05-18T03:10:30.719Z,95748.20
2019-05-18T03:12:56.692Z,95748.70
2019-05-18T03:15:22.738Z,95748.70
2019-05-18T03:17:48.712Z,95743.55
2019-05-18T03:20:15.574Z,95743.55
2019-05-18T03:22:41.521Z,95745.30
2019-05-18T03:25:07.846Z,95747.25
2019-05-18T03:27:33.954Z,95750.13
2019-05-18T03:29:59.887Z,95750.13
2019-05-18T03:32:25.797Z,95760.32
2019-05-18T03:34:51.680Z,95760.69
2019-05-18T03:37:20.396Z,95754.95
2019-05-18T03:39:46.342Z,95767.42
2019-05-18T03:42:12.287Z,95755.95
2019-05-18T03:44:38.124Z,95753.66
2019-05-18T03:47:04.062Z,95752.06
2019-05-18T03:49:30.015Z,95749.08
2019-05-18T03:51:55.946Z,95748.91
2019-05-18T03:54:21.804Z,95755.07
2019-05-18T03:56:47.734Z,95753.94
2019-05-18T03:59:13.683Z,95753.45
2019-05-18T04:01:39.519Z,95759.38
2019-05-18T04:04:05.392Z,95761.06
2019-05-18T04:06:31.220Z,95760.19
2019-05-18T04:08:57.180Z,95763.89
2019-05-18T04:11:23.028Z,95770.23
2019-05-18T04:13:48.947Z,95766.80
2019-05-18T04:16:14.881Z,95766.33
2019-05-18T04:18:40.707Z,95768.25
2019-05-18T04:21:06.666Z,95760.41
2019-05-18T04:23:32.602Z,95763.22
2019-05-18T04:25:58.447Z,95769.73
2019-05-18T04:28:24.519Z,95758.12
2019-05-18T04:30:50.475Z,95754.89
2019-05-18T04:33:16.568Z,95747.08
2019-05-18T04:35:42.506Z,95750.86
2019-05-18T04:38:08.368Z,95748.34
2019-05-18T04:40:34.299Z,95741.19
2019-05-18T04:43:00.150Z,95748.44
2019-05-18T04:45:26.086Z,95748.75
2019-05-18T04:47:52.033Z,95752.98
2019-05-18T04:50:18.082Z,95758.77
2019-05-18T04:52:43.933Z,95762.46
2019-05-18T04:55:09.801Z,95762.46
2019-05-18T04:57:35.779Z,95772.00
2019-05-18T05:00:04.433Z,95775.03
2019-05-18T05:02:30.360Z,95779.47
2019-05-18T05:04:56.862Z,95784.92
2019-05-18T05:07:22.874Z,95787.04
2019-05-18T05:09:48.829Z,95776.61
2019-05-18T05:12:14.668Z,95787.16
2019-05-18T05:14:40.755Z,95791.91
2019-05-18T05:17:06.601Z,95790.19
2019-05-18T05:19:32.547Z,95793.28
2019-05-18T05:21:58.506Z,95793.83
2019-05-18T05:24:24.358Z,95789.21
2019-05-18T05:26:50.225Z,95788.19
2019-05-18T05:29:16.059Z,95799.50
2019-05-18T05:31:42.027Z,95798.71
2019-05-18T05:34:07.879Z,95796.28
2019-05-18T05:36:33.734Z,95789.73
2019-05-18T05:38:59.554Z,95785.87
2019-05-18T05:41:25.409Z,95791.09
2019-05-18T05:43:51.228Z,95790.53
2019-05-18T05:46:17.164Z,95803.70
2019-05-18T05:48:43.115Z,95793.59
2019-05-18T05:51:09.057Z,95811.42
2019-05-18T05:53:34.916Z,95812.19
2019-05-18T05:56:00.775Z,95813.33
2019-05-18T05:58:26.630Z,95817.23
2019-05-18T06:00:52.585Z,95817.94
2019-05-18T06:03:18.423Z,95824.47
2019-05-18T06:05:44.345Z,95820.22
2019-05-18T06:08:10.284Z,95818.05
2019-05-18T06:10:36.249Z,95824.67
2019-05-18T06:13:02.093Z,95826.78
2019-05-18T06:15:28.131Z,95825.59
2019-05-18T06:17:54.092Z,95820.70
2019-05-18T06:20:19.974Z,95822.52
2019-05-18T06:22:45.864Z,95820.14
2019-05-18T06:25:12.051Z,95824.06
2019-05-18T06:27:38.048Z,95813.62
2019-05-18T06:30:04.731Z,95813.62
2019-05-18T06:32:30.599Z,95829.94
2019-05-18T06:34:56.471Z,95823.13
2019-05-18T06:37:22.439Z,95825.48
2019-05-18T06:39:48.481Z,95823.95
2019-05-18T06:42:14.450Z,95826.05
2019-05-18T06:44:40.399Z,95826.05
2019-05-18T06:47:06.343Z,95835.85
2019-05-18T06:49:32.266Z,95828.55
2019-05-18T06:51:58.316Z,95831.50
2019-05-18T06:54:24.348Z,95833.11
2019-05-18T06:56:50.726Z,95831.99
2019-05-18T06:59:16.761Z,95825.39
2019-05-18T07:01:42.881Z,95829.94
2019-05-18T07:04:08.814Z,95828.25
2019-05-18T07:06:34.685Z,95826.41
2019-05-18T07:09:00.623Z,95834.25
2019-05-18T07:11:26.579Z,95831.84
2019-05-18T07:13:52.452Z,95833.48
2019-05-18T07:16:18.413Z,95829.72
2019-05-18T07:18:44.353Z,95827.88
2019-05-18T07:21:21.328Z,95829.04
2019-05-18T07:23:38.107Z,95827.11
2019-05-18T07:26:04.049Z,95821.31
2019-05-18T07:28:30.019Z,95827.63
2019-05-18T07:30:55.977Z,95824.83
2019-05-18T07:33:21.931Z,95776.94
2019-05-18T07:35:47.886Z,95832.77
2019-05-18T07:38:13.718Z,95832.57
2019-05-18T07:40:39.666Z,95823.24
2019-05-18T07:43:05.535Z,95832.28
2019-05-18T07:45:31.480Z,95826.34
2019-05-18T07:47:57.327Z,95830.14
2019-05-18T07:50:23.365Z,95826.56
2019-05-18T07:52:49.443Z,95831.12
2019-05-18T07:55:15.697Z,95830.87
2019-05-18T07:57:41.587Z,95827.38
2019-05-18T08:00:07.944Z,95829.09
2019-05-18T08:02:33.829Z,95831.67
2019-05-18T08:04:59.701Z,95834.35
2019-05-18T08:07:25.646Z,95831.02
2019-05-18T08:09:51.510Z,95831.55
2019-05-18T08:12:17.564Z,95832.08
2019-05-18T08:14:43.664Z,95834.55
2019-05-18T08:17:09.642Z,95830.25
2019-05-18T08:19:35.561Z,95838.55
2019-05-18T08:22:01.505Z,95843.54
2019-05-18T08:24:27.355Z,95836.75
2019-05-18T08:26:53.251Z,95836.66
2019-05-18T08:29:19.134Z,95838.79
2019-05-18T08:31:45.087Z,95832.68
2019-05-18T08:34:10.912Z,95834.56
2019-05-18T08:36:36.801Z,95828.82
2019-05-18T08:39:04.355Z,95834.83
2019-05-18T08:41:30.204Z,95838.98
2019-05-18T08:43:56.165Z,95831.63
2019-05-18T08:46:22.019Z,95834.59
2019-05-18T08:48:47.977Z,95827.20
2019-05-18T08:51:13.818Z,95831.08
2019-05-18T08:53:39.680Z,95832.29
2019-05-18T08:56:05.508Z,95831.55
2019-05-18T08:58:31.401Z,95835.16
2019-05-18T09:00:57.231Z,95833.27
2019-05-18T09:03:23.092Z,95832.69
2019-05-18T09:05:48.927Z,95827.88
2019-05-18T09:08:14.790Z,95827.15
2019-05-18T09:10:40.658Z,95826.39
2019-05-18T09:13:06.633Z,95829.63
2019-05-18T09:15:32.482Z,95819.30
2019-05-18T09:17:58.356Z,95813.02
2019-05-18T09:20:24.223Z,95815.31
2019-05-18T09:22:50.100Z,95807.68
2019-05-18T09:25:16.248Z,95811.27
2019-05-18T09:27:42.292Z,95814.91
2019-05-18T09:30:09.391Z,95805.18
2019-05-18T09:32:35.530Z,95809.77
2019-05-18T09:35:01.711Z,95809.75
2019-05-18T09:37:27.552Z,95812.61
2019-05-18T09:39:53.542Z,95811.48
2019-05-18T09:42:19.611Z,95811.22
2019-05-18T09:44:45.563Z,95814.23
2019-05-18T09:47:11.431Z,95812.38
2019-05-18T09:49:37.297Z,95808.28
2019-05-18T09:52:03.276Z,95804.02
2019-05-18T09:54:29.225Z,95805.91
2019-05-18T09:56:55.100Z,95805.55
2019-05-18T09:59:20.961Z,95802.29
2019-05-18T10:01:46.872Z,95807.88
2019-05-18T10:04:12.798Z,95808.31
2019-05-18T10:06:38.644Z,95800.34
2019-05-18T10:09:07.681Z,95806.81
2019-05-18T10:11:38.499Z,95814.43
2019-05-18T10:14:01.601Z,95805.94
2019-05-18T10:16:27.483Z,95805.59
2019-05-18T10:18:53.350Z,95799.91
2019-05-18T10:21:19.336Z,95796.11
2019-05-18T10:23:45.209Z,95805.73
2019-05-18T10:26:11.054Z,95801.36
2019-05-18T10:28:36.958Z,95804.79
2019-05-18T10:31:03.576Z,95800.09
2019-05-18T10:33:29.448Z,95800.62
2019-05-18T10:35:55.298Z,95804.33
2019-05-18T10:38:21.255Z,95803.94
2019-05-18T10:40:47.229Z,95802.38
2019-05-18T10:43:13.117Z,95796.08
2019-05-18T10:45:39.099Z,95800.77
2019-05-18T10:48:05.188Z,95804.02
2019-05-18T10:50:31.108Z,95799.55
2019-05-18T10:52:57.005Z,95798.97
2019-05-18T10:55:22.989Z,95798.73
2019-05-18T10:57:48.963Z,95794.85
2019-05-18T11:00:15.295Z,95804.23
2019-05-18T11:02:41.134Z,95797.86
2019-05-18T11:05:08.211Z,95800.04
2019-05-18T11:07:34.175Z,95800.94
2019-05-18T11:10:00.040Z,95804.20
2019-05-18T11:12:25.915Z,95800.81
2019-05-18T11:14:51.821Z,95796.91
2019-05-18T11:17:17.822Z,95800.89
2019-05-18T11:19:43.778Z,95797.30
2019-05-18T11:22:09.718Z,95798.56
2019-05-18T11:24:35.691Z,95794.28
2019-05-18T11:27:01.544Z,95789.39
2019-05-18T11:29:27.380Z,95791.59
2019-05-18T11:31:53.353Z,95796.82
2019-05-18T11:34:19.319Z,95786.28
2019-05-18T11:36:45.212Z,95786.69
2019-05-18T11:39:11.100Z,95788.28
2019-05-18T11:41:37.050Z,95786.84
2019-05-18T11:44:03.172Z,95784.68
2019-05-18T11:46:29.042Z,95786.84
2019-05-18T11:48:54.984Z,95782.91
2019-05-18T11:51:21.046Z,95781.88
2019-05-18T11:53:57.846Z,95783.80
2019-05-18T11:56:14.886Z,95787.44
2019-05-18T11:58:40.840Z,95783.34
2019-05-18T12:01:06.735Z,95786.31
2019-05-18T12:03:33.121Z,95787.25
2019-05-18T12:05:59.088Z,95782.62
2019-05-18T12:08:24.964Z,95780.91
2019-05-18T12:10:52.323Z,95782.81
2019-05-18T12:13:18.181Z,95780.84
2019-05-18T12:15:44.047Z,95784.70
2019-05-18T12:18:10.012Z,95785.56
2019-05-18T12:20:35.887Z,95775.88
2019-05-18T12:23:01.719Z,95775.28
2019-05-18T12:25:27.576Z,95772.08
2019-05-18T12:27:53.595Z,95761.49
2019-05-18T12:30:19.957Z,95766.08
2019-05-18T12:32:45.890Z,95766.94
2019-05-18T12:35:12.294Z,95759.06
2019-05-18T12:37:38.165Z,95759.83
2019-05-18T12:40:05.732Z,95760.45
2019-05-18T12:42:31.590Z,95760.00
2019-05-18T12:44:57.585Z,95758.08
2019-05-18T12:47:23.894Z,95754.86
2019-05-18T12:49:49.816Z,95756.34
2019-05-18T12:52:15.755Z,95745.41
2019-05-18T12:54:46.462Z,95748.05
2019-05-18T12:57:09.463Z,95740.87
2019-05-18T12:59:35.350Z,95744.47
2019-05-18T13:02:01.223Z,95736.56
2019-05-18T13:04:27.084Z,95736.56
2019-05-18T13:06:52.937Z,95738.16
2019-05-18T13:09:18.835Z,95742.57
2019-05-18T13:11:44.685Z,95741.89
2019-05-18T13:14:10.558Z,95746.70
2019-05-18T13:16:36.409Z,95739.27
2019-05-18T13:19:02.486Z,95737.90
2019-05-18T13:21:28.338Z,95737.34
2019-05-18T13:23:54.203Z,95735.88
2019-05-18T13:26:20.106Z,95729.18
2019-05-18T13:28:46.025Z,95725.84
2019-05-18T13:31:12.006Z,95727.35
2019-05-18T13:33:37.826Z,95720.17
2019-05-18T13:36:03.825Z,95717.80
2019-05-18T13:38:29.684Z,95724.94
2019-05-18T13:40:55.581Z,95720.88
2019-05-18T13:43:21.569Z,95722.04
2019-05-18T13:45:47.413Z,95715.08
2019-05-18T13:48:13.380Z,95712.03
2019-05-18T13:50:39.431Z,95710.18
2019-05-18T13:53:05.392Z,95711.06
2019-05-18T13:55:31.240Z,95709.11
2019-05-18T13:57:57.124Z,95703.30
2019-05-18T14:00:23.183Z,95704.81
2019-05-18T14:02:49.160Z,95706.62
2019-05-18T14:05:15.204Z,95705.97
2019-05-18T14:07:41.087Z,95708.11
2019-05-18T14:10:07.438Z,95701.48
2019-05-18T14:12:33.370Z,95701.48
2019-05-18T14:14:59.344Z,95693.23
2019-05-18T14:17:25.177Z,95692.31
2019-05-18T14:19:51.035Z,95684.67
2019-05-18T14:22:16.910Z,95687.34
2019-05-18T14:24:42.766Z,95685.28
2019-05-18T14:27:08.639Z,95684.59
2019-05-18T14:29:34.527Z,95687.30
2019-05-18T14:32:00.377Z,95689.74
2019-05-18T14:34:26.313Z,95692.86
2019-05-18T14:36:52.197Z,95688.63
2019-05-18T14:39:18.054Z,95682.46
2019-05-18T14:41:43.931Z,95691.31
2019-05-18T14:44:09.782Z,95692.30
2019-05-18T14:46:35.654Z,95683.99
2019-05-18T14:49:01.496Z,95686.87
2019-05-18T14:51:27.393Z,95687.03
2019-05-18T14:53:53.244Z,95684.59
2019-05-18T14:56:19.119Z,95687.70
2019-05-18T14:58:44.991Z,95686.52
2019-05-18T15:01:10.962Z,95684.12
2019-05-18T15:03:36.821Z,95686.67
2019-05-18T15:06:02.787Z,95681.28
2019-05-18T15:08:28.619Z,95683.30
2019-05-18T15:10:54.552Z,95686.42
2019-05-18T15:13:20.522Z,95687.34
2019-05-18T15:15:46.494Z,95681.59
2019-05-18T15:18:12.482Z,95688.39
2019-05-18T15:20:38.437Z,95687.18
2019-05-18T15:23:04.402Z,95681.77
2019-05-18T15:25:30.339Z,95680.06
2019-05-18T15:27:56.288Z,95676.56
2019-05-18T15:30:22.518Z,95643.98
2019-05-18T15:32:48.370Z,95671.21
2019-05-18T15:35:14.573Z,95670.20
2019-05-18T15:37:43.424Z,95672.80
2019-05-18T15:40:08.637Z,95667.30
2019-05-18T15:42:34.498Z,95668.38
2019-05-18T15:45:00.500Z,95666.72
2019-05-18T15:47:26.362Z,95664.61
2019-05-18T15:49:52.213Z,95665.70
2019-05-18T15:52:18.220Z,95660.14
2019-05-18T15:54:44.170Z,95658.06
2019-05-18T15:57:10.038Z,95662.99
2019-05-18T15:59:35.994Z,95660.19
2019-05-18T16:02:06.127Z,95654.38
2019-05-18T16:04:29.817Z,95664.94
2019-05-18T16:06:55.679Z,95660.64
2019-05-18T16:09:21.537Z,95666.79
2019-05-18T16:11:47.429Z,95666.72
2019-05-18T16:14:13.279Z,95662.88
2019-05-18T16:16:39.279Z,95663.86
2019-05-18T16:19:05.245Z,95652.30
2019-05-18T16:21:31.416Z,95659.81
2019-05-18T16:23:57.275Z,95659.65
2019-05-18T16:26:23.123Z,95655.27
2019-05-18T16:28:49.213Z,95662.22
2019-05-18T16:31:15.186Z,95665.20
2019-05-18T16:33:41.159Z,95659.88
2019-05-18T16:36:07.108Z,95655.84
2019-05-18T16:38:33.092Z,95659.45
2019-05-18T16:40:59.053Z,95654.92
2019-05-18T16:43:25.032Z,95652.81
2019-05-18T16:45:50.986Z,95657.02
2019-05-18T16:48:16.946Z,95652.11
2019-05-18T16:50:42.943Z,95650.36
2019-05-18T16:53:09.006Z,95649.37
2019-05-18T16:55:35.022Z,95643.34
2019-05-18T16:58:02.194Z,95645.23
2019-05-18T17:00:28.318Z,95648.72
2019-05-18T17:02:54.178Z,95643.17
2019-05-18T17:05:20.062Z,95645.45
2019-05-18T17:07:46.028Z,95638.50
2019-05-18T17:10:13.394Z,95640.83
2019-05-18T17:12:39.403Z,95640.83
2019-05-18T17:15:06.645Z,95640.79
2019-05-18T17:17:35.330Z,95609.77
2019-05-18T17:20:00.591Z,95644.81
2019-05-18T17:22:26.675Z,95634.35
2019-05-18T17:24:52.637Z,95637.38
2019-05-18T17:27:18.616Z,95642.30
2019-05-18T17:29:44.464Z,95645.81
2019-05-18T17:32:10.358Z,95637.34
2019-05-18T17:34:36.334Z,95642.64
2019-05-18T17:37:02.303Z,95640.65
2019-05-18T17:39:28.268Z,95641.41
2019-05-18T17:41:54.155Z,95640.05
2019-05-18T17:44:20.007Z,95635.94
2019-05-18T17:46:45.996Z,95636.61
2019-05-18T17:49:25.888Z,95625.59
2019-05-18T17:51:39.914Z,95634.39
2019-05-18T17:54:05.875Z,95638.88
2019-05-18T17:56:31.738Z,95636.27
2019-05-18T17:58:57.687Z,95640.12
2019-05-18T18:01:23.782Z,95639.05
2019-05-18T18:03:49.648Z,95641.91
2019-05-18T18:06:15.532Z,95636.27
2019-05-18T18:08:41.511Z,95633.94
2019-05-18T18:11:07.363Z,95638.45
2019-05-18T18:13:33.349Z,95643.28
2019-05-18T18:15:59.326Z,95640.84
2019-05-18T18:18:25.296Z,95644.27
2019-05-18T18:20:51.358Z,95648.46
2019-05-18T18:23:17.215Z,95655.27
2019-05-18T18:25:43.170Z,95653.36
2019-05-18T18:28:09.148Z,95653.68
2019-05-18T18:30:34.986Z,95656.76
2019-05-18T18:33:00.851Z,95654.18
2019-05-18T18:35:26.850Z,95654.70
2019-05-18T18:37:52.715Z,95654.39
2019-05-18T18:40:18.609Z,95651.25
2019-05-18T18:42:44.495Z,95654.56
2019-05-18T18:45:10.473Z,95654.33
2019-05-18T18:47:36.586Z,95656.03
2019-05-18T18:50:04.348Z,95653.20
2019-05-18T18:52:30.301Z,95652.75
2019-05-18T18:54:56.277Z,95647.98
2019-05-18T18:57:22.246Z,95649.95
2019-05-18T18:59:48.226Z,95660.30
2019-05-18T19:02:14.090Z,95662.45
2019-05-18T19:04:40.074Z,95660.14
2019-05-18T19:07:09.014Z,95663.58
2019-05-18T19:09:33.817Z,95662.24
2019-05-18T19:11:59.701Z,95669.14
2019-05-18T19:14:25.707Z,95665.88
2019-05-18T19:16:51.538Z,95668.59
2019-05-18T19:19:17.403Z,95672.05
2019-05-18T19:21:43.245Z,95674.20
2019-05-18T19:24:09.211Z,95667.88
2019-05-18T19:26:35.188Z,95672.64
2019-05-18T19:29:01.046Z,95672.08
2019-05-18T19:31:26.922Z,95673.60
2019-05-18T19:33:52.880Z,95679.55
2019-05-18T19:36:18.808Z,95680.92
2019-05-18T19:38:44.669Z,95680.53
2019-05-18T19:41:11.383Z,95685.34
2019-05-18T19:43:37.339Z,95681.54
2019-05-18T19:46:03.308Z,95678.67
2019-05-18T19:48:29.158Z,95683.67
2019-05-18T19:50:55.038Z,95683.67
2019-05-18T19:53:21.009Z,95681.57
2019-05-18T19:55:46.997Z,95685.73
2019-05-18T19:58:12.937Z,95684.38
2019-05-18T20:00:38.987Z,95684.20
2019-05-18T20:03:04.951Z,95682.84
2019-05-18T20:05:30.896Z,95678.63
2019-05-18T20:07:56.916Z,95690.02
2019-05-18T20:10:22.761Z,95685.23
2019-05-18T20:12:48.720Z,95681.42
2019-05-18T20:15:15.459Z,95686.37
2019-05-18T20:17:41.340Z,95685.59
2019-05-18T20:20:07.580Z,95686.17
2019-05-18T20:22:33.466Z,95687.84
2019-05-18T20:24:59.529Z,95688.03
2019-05-18T20:27:25.353Z,95686.76
2019-05-18T20:29:51.348Z,95689.27
2019-05-18T20:32:17.276Z,95689.16
2019-05-18T20:34:43.130Z,95682.74
2019-05-18T20:37:09.075Z,95686.22
2019-05-18T20:39:34.934Z,95688.66
2019-05-18T20:42:00.781Z,95686.61
2019-05-18T20:44:26.737Z,95690.82
2019-05-18T20:46:52.694Z,95689.79
2019-05-18T20:49:18.662Z,95691.36
2019-05-18T20:51:44.505Z,95693.70
2019-05-18T20:54:10.359Z,95692.70
2019-05-18T20:56:36.226Z,95685.80
2019-05-18T20:59:02.197Z,95692.65
2019-05-18T21:01:28.267Z,95691.17
2019-05-18T21:03:54.230Z,95689.69
2019-05-18T21:06:20.086Z,95693.79
2019-05-18T21:08:46.046Z,95696.64
2019-05-18T21:11:11.993Z,95693.20
2019-05-18T21:13:37.834Z,95692.97
2019-05-18T21:16:03.675Z,95687.64
2019-05-18T21:18:29.516Z,95687.64
2019-05-18T21:20:55.348Z,95689.49
2019-05-18T21:23:21.323Z,95692.73
2019-05-18T21:25:47.196Z,95691.58
2019-05-18T21:28:13.048Z,95686.07
2019-05-18T21:30:38.891Z,95695.70
2019-05-18T21:33:04.858Z,95690.41
2019-05-18T21:35:30.916Z,95687.69
2019-05-18T21:37:57.064Z,95686.56
2019-05-18T21:40:26.107Z,95686.61
2019-05-18T21:42:50.805Z,95685.88
2019-05-18T21:45:16.791Z,95684.27
2019-05-18T21:47:43.985Z,95686.56
2019-05-18T21:50:10.136Z,95688.07
2019-05-18T21:52:36.180Z,95681.98
2019-05-18T21:55:05.624Z,95685.67
2019-05-18T21:57:31.579Z,95680.89
2019-05-18T21:59:57.546Z,95683.31
2019-05-18T22:02:23.521Z,95678.66
2019-05-18T22:04:49.398Z,95685.86
2019-05-18T22:07:15.411Z,95676.65
2019-05-18T22:09:41.471Z,95673.42
2019-05-18T22:12:07.399Z,95665.92
2019-05-18T22:14:33.392Z,95666.65
2019-05-18T22:16:59.354Z,95663.74
2019-05-18T22:19:25.202Z,95657.64
2019-05-18T22:21:51.026Z,95654.41
2019-05-18T22:24:16.959Z,95659.62
2019-05-18T22:26:42.857Z,95659.84
2019-05-18T22:29:08.928Z,95652.02
2019-05-18T22:31:34.822Z,95650.71
2019-05-18T22:34:00.761Z,95646.30
2019-05-18T22:36:26.733Z,95645.25
2019-05-18T22:38:52.673Z,95647.73
2019-05-18T22:41:18.535Z,95634.48
2019-05-18T22:43:44.507Z,95632.22
2019-05-18T22:46:10.377Z,95639.38
2019-05-18T22:48:41.176Z,95629.94
2019-05-18T22:51:03.990Z,95634.12
2019-05-18T22:53:29.970Z,95630.12
2019-05-18T22:55:55.941Z,95624.14
2019-05-18T22:58:21.781Z,95625.92
2019-05-18T23:00:47.824Z,95619.92
2019-05-18T23:03:13.715Z,95614.84
2019-05-18T23:05:39.671Z,95611.37
2019-05-18T23:08:05.621Z,95612.77
2019-05-18T23:10:31.572Z,95609.14
2019-05-18T23:12:57.529Z,95608.91
2019-05-18T23:15:23.392Z,95609.55
2019-05-18T23:17:49.356Z,95561.62
2019-05-18T23:20:15.427Z,95604.95
2019-05-18T23:22:41.399Z,95601.61
2019-05-18T23:25:07.437Z,95599.28
2019-05-18T23:27:33.280Z,95601.39
2019-05-18T23:29:59.216Z,95597.81
2019-05-18T23:32:25.209Z,95596.85
2019-05-18T23:34:51.141Z,95593.59
2019-05-18T23:37:16.997Z,95595.22
2019-05-18T23:39:43.805Z,95592.88
2019-05-18T23:42:09.653Z,95591.52
2019-05-18T23:44:35.507Z,95590.52
2019-05-18T23:47:01.460Z,95597.15
2019-05-18T23:49:27.418Z,95595.13
2019-05-18T23:51:53.339Z,95593.96
2019-05-18T23:54:19.188Z,95594.92
2019-05-18T23:56:45.028Z,95597.50
2019-05-18T23:59:11.079Z,95596.86
